Time;durP1;ratioP1;P1;durP2;ratioP2;P2;SDS_P1;SDS_P2;PMS_P1;PMS_P2;Temp;Humidity;BMP_temperature;BMP_pressure;BME280_temperature;BME280_humidity;BME280_pressure;Samples;Min_cycle;Max_cycle;Signal;HPM_P1;HPM_P2
2024/03/09 00:03:04;;;;;;;42.08;23.00;;;;;;;3.29;93.89;100371.66;4946697;28;20043;-84
2024/03/09 00:06:08;;;;;;;37.42;21.88;;;;;;;3.28;94.28;100376.81;4954368;28;20054;-86
2024/03/09 00:08:44;;;;;;;45.50;23.10;;;;;;;3.25;95.00;100371.59;4973860;28;20140;-85
2024/03/09 00:11:14;;;;;;;39.17;20.85;;;;;;;3.22;95.39;100376.72;4943598;28;20125;-86
2024/03/09 00:13:44;;;;;;;40.47;22.38;;;;;;;3.19;96.45;100374.94;4950654;29;20035;-86
2024/03/09 00:16:10;;;;;;;42.63;22.70;;;;;;;3.19;96.78;100366.31;4945324;28;20048;-85
2024/03/09 00:18:39;;;;;;;45.03;22.38;;;;;;;3.13;97.08;100370.53;4950085;28;20058;-84
2024/03/09 00:21:08;;;;;;;46.17;21.80;;;;;;;3.15;97.43;100375.75;4945733;28;20141;-85
2024/03/09 00:23:41;;;;;;;38.92;23.42;;;;;;;3.11;98.16;100372.22;4937546;29;20043;-84
2024/03/09 00:26:09;;;;;;;40.70;23.00;;;;;;;3.10;98.27;100380.84;4938072;28;20043;-84
2024/03/09 00:28:46;;;;;;;37.05;21.92;;;;;;;3.07;99.48;100380.78;4938116;29;20048;-83
2024/03/09 00:31:18;;;;;;;38.78;22.83;;;;;;;3.06;99.54;100373.84;4955784;28;20119;-85
2024/03/09 00:33:52;;;;;;;40.70;22.02;;;;;;;3.06;99.69;100373.00;4926191;28;20055;-84
2024/03/09 00:36:33;;;;;;;42.10;23.95;;;;;;;3.02;100.00;100373.78;4968291;28;20195;-85
2024/03/09 00:39:13;;;;;;;42.33;23.10;;;;;;;2.98;100.00;100355.63;4938827;28;20047;-85
2024/03/09 00:41:42;;;;;;;46.30;23.15;;;;;;;2.96;100.00;100348.72;4961941;28;20051;-84
2024/03/09 00:44:16;;;;;;;46.92;24.85;;;;;;;2.91;100.00;100352.94;4942317;28;20078;-84
2024/03/09 00:46:52;;;;;;;48.88;24.83;;;;;;;2.91;100.00;100350.34;4961809;28;20031;-83
2024/03/09 00:49:19;;;;;;;44.85;23.88;;;;;;;2.88;100.00;100345.09;4964932;28;20043;-84
2024/03/09 00:51:48;;;;;;;42.08;22.92;;;;;;;2.86;100.00;100347.66;4946471;28;20201;-84
2024/03/09 00:54:15;;;;;;;40.90;23.20;;;;;;;2.86;100.00;100345.09;4937396;28;20042;-83
2024/03/09 00:56:50;;;;;;;41.55;23.08;;;;;;;2.84;100.00;100345.91;4938984;29;20043;-82
2024/03/09 00:59:19;;;;;;;52.88;26.33;;;;;;;2.80;100.00;100340.69;4957527;28;20103;-84
2024/03/09 01:01:52;;;;;;;46.83;25.65;;;;;;;2.80;100.00;100338.09;4941368;29;20061;-83
2024/03/09 01:04:19;;;;;;;41.42;24.35;;;;;;;2.76;100.00;100330.25;4939499;28;20040;-86
2024/03/09 01:06:49;;;;;;;46.00;25.50;;;;;;;2.72;100.00;100331.91;4958330;28;20068;-84
2024/03/09 01:09:20;;;;;;;44.30;22.70;;;;;;;2.72;100.00;100325.88;4937854;28;20051;-83
2024/03/09 01:11:51;;;;;;;47.10;25.20;;;;;;;2.75;100.00;100328.50;4941490;29;20119;-84
2024/03/09 01:14:27;;;;;;;43.90;24.98;;;;;;;2.74;100.00;100319.03;4940619;28;20061;-84
2024/03/09 01:16:57;;;;;;;47.88;27.83;;;;;;;2.70;100.00;100320.69;4957494;28;20035;-83
2024/03/09 01:19:45;;;;;;;48.13;24.77;;;;;;;2.68;100.00;100316.34;4938598;28;20065;-84
2024/03/09 01:22:15;;;;;;;49.53;27.73;;;;;;;2.68;100.00;100304.28;4942548;28;20065;-84
2024/03/09 01:24:45;;;;;;;49.90;25.77;;;;;;;2.64;100.00;100303.34;4943553;29;20063;-84
2024/03/09 01:27:16;;;;;;;54.00;26.63;;;;;;;2.64;100.00;100297.31;4960457;28;20119;-83
2024/03/09 01:29:47;;;;;;;48.55;25.10;;;;;;;2.61;100.00;100298.13;4940653;29;20052;-84
2024/03/09 01:32:17;;;;;;;49.45;27.00;;;;;;;2.61;100.00;100294.69;4943002;28;20071;-83
2024/03/09 01:34:45;;;;;;;50.75;26.42;;;;;;;2.57;100.00;100298.91;4979486;28;20051;-84
2024/03/09 01:37:21;;;;;;;53.00;27.35;;;;;;;2.55;100.00;100298.00;4942371;28;20055;-84
2024/03/09 01:39:52;;;;;;;52.53;27.30;;;;;;;2.53;100.00;100294.53;4963826;28;20054;-84
2024/03/09 01:42:26;;;;;;;54.30;26.40;;;;;;;2.52;100.00;100291.94;4942897;28;20059;-83
2024/03/09 01:44:59;;;;;;;46.00;25.40;;;;;;;2.51;100.00;100293.63;4952642;29;20290;-84
2024/03/09 01:47:30;;;;;;;55.58;25.20;;;;;;;2.47;100.00;100289.25;4954777;28;20058;-83
2024/03/09 01:49:58;;;;;;;50.38;25.80;;;;;;;2.45;100.00;100284.06;4938014;29;20051;-84
2024/03/09 01:52:31;;;;;;;49.00;26.50;;;;;;;2.43;100.00;100285.75;4943996;28;20043;-84
2024/03/09 01:55:08;;;;;;;53.55;27.33;;;;;;;2.42;100.00;100278.81;4952447;29;20054;-83
2024/03/09 01:57:37;;;;;;;45.28;25.33;;;;;;;2.40;100.00;100283.13;4962555;28;20075;-85
2024/03/09 02:00:17;;;;;;;47.20;25.20;;;;;;;2.39;100.00;100272.75;4944311;28;20035;-84
2024/03/09 02:02:51;;;;;;;50.17;28.52;;;;;;;2.34;100.00;100272.66;4949567;29;20574;-85
2024/03/09 02:05:25;;;;;;;53.15;27.35;;;;;;;2.30;100.00;100265.69;4945143;28;20043;-83
2024/03/09 02:07:59;;;;;;;53.13;27.88;;;;;;;2.30;100.00;100260.53;4946780;28;20022;-85
2024/03/09 02:10:26;;;;;;;54.75;27.27;;;;;;;2.27;100.00;100253.59;4957154;28;20035;-85
2024/03/09 02:12:54;;;;;;;51.65;27.35;;;;;;;2.24;100.00;100258.72;4962055;29;20035;-84
2024/03/09 02:15:21;;;;;;;48.50;26.60;;;;;;;2.22;100.00;100249.22;4943764;28;20063;-84
2024/03/09 02:17:49;;;;;;;49.80;27.65;;;;;;;2.20;100.00;100246.56;4942499;29;20093;-83
2024/03/09 02:20:24;;;;;;;50.05;26.13;;;;;;;2.17;100.00;100237.91;4957345;28;20058;-84
2024/03/09 02:22:51;;;;;;;50.83;28.23;;;;;;;2.16;100.00;100231.88;4934841;29;20074;-83
2024/03/09 02:25:21;;;;;;;49.58;27.38;;;;;;;2.15;100.00;100233.59;4956568;28;20081;-83
2024/03/09 02:27:49;;;;;;;49.30;26.10;;;;;;;2.11;100.00;100230.91;4942135;29;20043;-84
2024/03/09 02:30:16;;;;;;;52.28;26.80;;;;;;;2.10;100.00;100230.06;4949970;28;20463;-84
2024/03/09 02:38:54;;;;;;;49.63;27.65;;;;;;;2.06;100.00;100212.75;4915802;29;20059;-84
2024/03/09 02:41:41;;;;;;;51.80;28.15;;;;;;;2.05;100.00;100205.00;4960947;28;20495;-85
2024/03/09 02:44:12;;;;;;;58.05;30.08;;;;;;;2.04;100.00;100216.16;4945496;28;20031;-84
2024/03/09 02:46:42;;;;;;;59.45;27.95;;;;;;;2.03;100.00;100204.94;4959119;29;20049;-85
2024/03/09 02:49:21;;;;;;;51.60;27.02;;;;;;;2.02;100.00;100208.41;4945491;28;20034;-83
2024/03/09 02:51:50;;;;;;;54.30;27.50;;;;;;;2.02;100.00;100207.50;4952512;29;20043;-86
2024/03/09 02:54:27;;;;;;;51.20;28.27;;;;;;;2.01;100.00;100203.16;4950334;28;20054;-83
2024/03/09 02:56:58;;;;;;;52.85;26.98;;;;;;;1.98;100.00;100204.00;4944558;28;20047;-84
2024/03/09 02:59:25;;;;;;;53.80;26.75;;;;;;;1.96;100.00;100203.97;4940670;28;20114;-84
2024/03/09 03:02:02;;;;;;;49.40;27.05;;;;;;;1.95;100.00;100196.19;4943172;29;20075;-84
2024/03/09 03:04:29;;;;;;;52.45;27.23;;;;;;;1.94;100.00;100197.91;4942448;28;20055;-85
2024/03/09 03:07:09;;;;;;;48.60;25.30;;;;;;;1.89;100.00;100196.97;4940341;29;20054;-83
2024/03/09 03:09:37;;;;;;;51.97;27.27;;;;;;;1.90;100.00;100201.25;4953482;28;20047;-84
2024/03/09 03:12:07;;;;;;;52.78;29.40;;;;;;;1.89;100.00;100188.31;4939751;29;20188;-83
2024/03/09 03:14:46;;;;;;;59.47;28.30;;;;;;;1.87;100.00;100190.88;4959443;28;20335;-84
2024/03/09 03:17:16;;;;;;;49.35;27.88;;;;;;;1.86;100.00;100198.59;4955733;28;20031;-84
2024/03/09 03:19:52;;;;;;;51.08;27.85;;;;;;;1.83;100.00;100189.09;4954982;29;20141;-83
2024/03/09 03:22:19;;;;;;;58.22;30.38;;;;;;;1.84;100.00;100189.94;4938673;28;20039;-83
2024/03/09 03:24:48;;;;;;;52.03;27.83;;;;;;;1.82;100.00;100192.50;4954860;29;20086;-84
2024/03/09 03:27:19;;;;;;;57.42;28.75;;;;;;;1.83;100.00;100183.06;4930936;28;20043;-83
2024/03/09 03:29:51;;;;;;;57.92;28.50;;;;;;;1.80;100.00;100187.31;4952561;29;20054;-83
2024/03/09 03:32:19;;;;;;;53.58;28.48;;;;;;;1.78;100.00;100193.28;4946084;28;20142;-83
2024/03/09 03:34:50;;;;;;;57.60;28.55;;;;;;;1.76;100.00;100195.84;4941810;29;20036;-84
2024/03/09 03:37:25;;;;;;;51.78;26.25;;;;;;;1.75;100.00;100190.66;4960578;28;20038;-84
2024/03/09 03:39:57;;;;;;;56.15;29.17;;;;;;;1.73;100.00;100192.34;4955642;29;20043;-83
2024/03/09 03:42:31;;;;;;;52.35;29.25;;;;;;;1.74;100.00;100188.91;4937650;28;20086;-84
2024/03/09 03:45:00;;;;;;;51.83;28.55;;;;;;;1.68;100.00;100184.50;4956300;29;20055;-84
2024/03/09 03:47:33;;;;;;;53.42;26.83;;;;;;;1.64;100.00;100195.59;4942604;28;20165;-84
2024/03/09 03:50:04;;;;;;;47.03;26.73;;;;;;;1.62;100.00;100197.28;4955044;29;20035;-86
2024/03/09 03:52:38;;;;;;;45.22;28.08;;;;;;;1.63;100.00;100192.16;4946682;28;20086;-83
2024/03/09 03:55:12;;;;;;;54.08;28.77;;;;;;;1.61;100.00;100196.41;4958059;29;20031;-83
2024/03/09 03:57:42;;;;;;;56.45;27.83;;;;;;;1.62;100.00;100189.56;4951182;29;20086;-84
2024/03/09 04:00:21;;;;;;;56.67;29.90;;;;;;;1.58;100.00;100186.03;4941545;29;20053;-83
2024/03/09 04:02:53;;;;;;;52.63;27.83;;;;;;;1.55;100.00;100180.81;4957574;29;20310;-83
2024/03/09 04:05:29;;;;;;;53.72;29.17;;;;;;;1.49;100.00;100173.81;4938827;28;20123;-85
2024/03/09 04:07:59;;;;;;;51.60;28.38;;;;;;;1.49;100.00;100178.97;4942852;28;20055;-83
2024/03/09 04:10:27;;;;;;;53.13;28.85;;;;;;;1.45;100.00;100179.75;4938639;28;20150;-83
2024/03/09 04:13:02;;;;;;;59.58;29.20;;;;;;;1.43;100.00;100168.53;4935282;29;20058;-84
2024/03/09 04:15:41;;;;;;;54.03;27.77;;;;;;;1.41;100.00;100167.63;4951730;28;20043;-84
2024/03/09 04:18:28;;;;;;;60.47;29.58;;;;;;;1.38;100.00;100169.28;4962250;28;20046;-84
2024/03/09 04:21:01;;;;;;;52.97;27.50;;;;;;;1.36;100.00;100160.66;4937241;29;20059;-85
2024/03/09 04:23:37;;;;;;;56.05;29.17;;;;;;;1.37;100.00;100157.22;4941225;28;20047;-84
2024/03/09 04:26:11;;;;;;;51.60;28.08;;;;;;;1.34;100.00;100150.28;4938648;29;20065;-84
2024/03/09 04:28:58;;;;;;;57.63;28.55;;;;;;;1.31;100.00;100160.53;4944919;29;20099;-85
2024/03/09 04:31:32;;;;;;;54.65;28.67;;;;;;;1.30;100.00;100157.13;4972582;28;20044;-84
2024/03/09 04:34:11;;;;;;;47.92;27.23;;;;;;;1.28;100.00;100155.34;4938739;29;20054;-84
2024/03/09 04:36:42;;;;;;;59.95;27.92;;;;;;;1.26;100.00;100164.75;4937718;29;20065;-85
2024/03/09 04:39:14;;;;;;;56.33;29.33;;;;;;;1.23;100.00;100162.09;4935579;28;20052;-84
2024/03/09 04:41:45;;;;;;;53.45;27.02;;;;;;;1.17;100.00;100155.09;4967950;28;20039;-83
2024/03/09 04:44:26;;;;;;;58.53;28.35;;;;;;;1.20;100.00;100159.44;4941009;28;20087;-84
2024/03/09 04:47:03;;;;;;;59.25;30.80;;;;;;;1.18;100.00;100155.97;4944240;28;20131;-85
2024/03/09 04:49:37;;;;;;;53.33;27.65;;;;;;;1.17;100.00;100155.09;4942073;29;20066;-85
2024/03/09 04:52:16;;;;;;;54.85;28.10;;;;;;;1.11;100.00;100148.09;4956358;28;20050;-84
2024/03/09 04:54:53;;;;;;;58.55;30.75;;;;;;;1.10;100.00;100153.25;4969958;28;20035;-85
2024/03/09 04:57:30;;;;;;;58.20;28.60;;;;;;;1.11;100.00;100140.38;4963718;28;20047;-85
2024/03/09 05:00:14;;;;;;;54.80;29.00;;;;;;;1.08;100.00;100136.84;4961363;29;20039;-84
2024/03/09 05:02:58;;;;;;;60.90;29.75;;;;;;;1.07;100.00;100140.25;4949634;29;20078;-84
2024/03/09 05:05:32;;;;;;;59.63;27.52;;;;;;;1.03;100.00;100141.03;4958890;28;20034;-85
2024/03/09 05:08:02;;;;;;;58.20;30.17;;;;;;;0.99;100.00;100135.84;4946262;29;20043;-85
2024/03/09 05:10:39;;;;;;;59.25;28.95;;;;;;;0.99;100.00;100138.41;4943531;28;20051;-84
2024/03/09 05:13:18;;;;;;;54.00;27.83;;;;;;;0.96;100.00;100138.31;4955744;29;20075;-85
2024/03/09 05:15:53;;;;;;;55.53;27.90;;;;;;;0.95;100.00;100143.44;4975721;28;20035;-85
2024/03/09 05:18:30;;;;;;;51.92;29.08;;;;;;;0.95;100.00;100140.88;4946236;28;20063;-84
2024/03/09 05:21:07;;;;;;;55.42;27.88;;;;;;;0.95;100.00;100138.28;4941862;28;20133;-85
2024/03/09 05:23:39;;;;;;;57.80;28.77;;;;;;;0.95;100.00;100128.88;4955192;29;20114;-85
2024/03/09 05:26:15;;;;;;;56.45;28.92;;;;;;;0.93;100.00;100124.53;4960958;29;20043;-83
2024/03/09 05:28:44;;;;;;;57.13;27.27;;;;;;;0.90;100.00;100122.75;4958295;28;20058;-85
2024/03/09 05:31:40;;;;;;;51.70;26.90;;;;;;;0.91;100.00;100123.59;4940576;28;20071;-84
2024/03/09 05:34:28;;;;;;;54.42;28.98;;;;;;;0.91;100.00;100128.75;4954291;29;20047;-84
2024/03/09 05:40:05;;;;;;;56.83;28.42;;;;;;;0.91;100.00;100121.91;4955071;29;20039;-85
2024/03/09 05:42:50;;;;;;;55.08;27.85;;;;;;;0.92;100.00;100118.47;4962232;28;20026;-85
2024/03/09 05:45:32;;;;;;;58.15;29.27;;;;;;;0.91;100.00;100124.50;4957509;28;20050;-84
2024/03/09 05:48:30;;;;;;;55.97;28.20;;;;;;;0.92;100.00;100127.94;4970195;28;20040;-84
2024/03/09 05:54:12;;;;;;;56.33;29.20;;;;;;;0.90;100.00;100117.59;4911896;29;20039;-84
2024/03/09 05:56:58;;;;;;;51.83;27.10;;;;;;;0.94;100.00;100118.50;4953184;28;20027;-84
2024/03/09 05:59:33;;;;;;;52.55;27.77;;;;;;;0.95;100.00;100109.94;4964306;28;20053;-85
2024/03/09 06:02:09;;;;;;;57.92;27.55;;;;;;;0.94;100.00;100106.50;4954809;28;20035;-85
2024/03/09 06:04:44;;;;;;;47.97;26.47;;;;;;;0.95;100.00;100107.38;4935491;28;20062;-85
2024/03/09 06:07:16;;;;;;;55.83;27.30;;;;;;;0.96;100.00;100114.28;4944347;29;20860;-86
2024/03/09 06:09:48;;;;;;;54.80;27.45;;;;;;;0.98;100.00;100117.75;4943772;28;20043;-85
2024/03/09 06:12:21;;;;;;;60.38;28.77;;;;;;;1.03;100.00;100113.56;4958880;28;20035;-83
2024/03/09 06:14:53;;;;;;;58.58;29.42;;;;;;;1.05;100.00;100118.75;4955913;29;20055;-83
2024/03/09 06:17:41;;;;;;;48.75;27.60;;;;;;;1.05;100.00;100111.03;4944482;28;20039;-84
2024/03/09 06:20:27;;;;;;;56.15;28.38;;;;;;;1.05;100.00;100111.88;4949147;28;20059;-84
2024/03/09 06:23:09;;;;;;;46.45;24.17;;;;;;;1.09;100.00;100105.94;4942272;29;20054;-85
2024/03/09 06:25:49;;;;;;;49.03;26.52;;;;;;;1.11;100.00;100111.16;4931872;28;20047;-85
2024/03/09 06:28:33;;;;;;;55.80;28.85;;;;;;;1.17;100.00;100115.56;4941796;28;20035;-86
2024/03/09 06:41:03;;;;;;;54.85;26.40;;;;;;;1.24;100.00;100120.88;4976840;28;20090;-83
2024/03/09 06:44:02;;;;;;;45.88;24.25;;;;;;;1.33;100.00;100112.47;4954109;28;20066;-84
2024/03/09 06:46:37;;;;;;;50.78;25.05;;;;;;;1.41;100.00;100118.63;4951887;28;20126;-85
2024/03/09 06:52:06;;;;;;;47.28;25.60;;;;;;;1.52;100.00;100110.25;4911517;28;20138;-81
2024/03/09 06:54:42;;;;;;;49.10;25.17;;;;;;;1.73;100.00;100115.78;4925368;28;20043;-86
2024/03/09 06:57:09;;;;;;;51.33;26.00;;;;;;;3.55;100.00;100119.31;4942652;28;20053;-84
2024/03/09 06:59:41;;;;;;;42.78;23.95;;;;;;;4.28;100.00;100102.72;4930095;28;20050;-84
2024/03/09 07:02:10;;;;;;;43.83;23.45;;;;;;;6.11;93.75;100119.97;4945999;29;20067;-85
2024/03/09 07:04:38;;;;;;;45.80;23.52;;;;;;;6.52;85.03;100113.00;4910377;28;20039;-84
2024/03/09 07:07:04;;;;;;;45.00;23.30;;;;;;;6.75;80.75;100106.06;4941977;28;20047;-83
2024/03/09 07:09:31;;;;;;;44.20;22.27;;;;;;;7.89;76.79;100101.22;4923911;28;20119;-86
2024/03/09 07:11:59;;;;;;;37.88;20.92;;;;;;;8.44;69.72;100095.53;4930185;29;20469;-84
2024/03/09 07:14:29;;;;;;;40.10;21.73;;;;;;;8.51;68.67;100095.53;4943904;28;20840;-85
2024/03/09 07:16:55;;;;;;;41.45;21.52;;;;;;;8.75;67.94;100102.25;4923179;28;20058;-83
2024/03/09 07:19:24;;;;;;;41.90;20.90;;;;;;;9.41;63.79;100100.59;4938696;28;20075;-84
2024/03/09 07:21:53;;;;;;;47.78;21.58;;;;;;;9.20;63.18;100086.94;4923852;29;20443;-85
2024/03/09 07:24:20;;;;;;;36.40;21.35;;;;;;;9.70;61.80;100091.50;4923091;28;20079;-84
2024/03/09 07:26:48;;;;;;;33.15;19.42;;;;;;;9.87;60.44;100081.66;4928420;29;20110;-85
2024/03/09 07:29:17;;;;;;;37.53;21.05;;;;;;;9.88;60.92;100092.97;4942702;28;20113;-83
2024/03/09 07:31:44;;;;;;;37.30;21.02;;;;;;;9.73;60.49;100089.72;4938604;28;20456;-84
2024/03/09 07:34:10;;;;;;;33.50;20.23;;;;;;;10.09;59.57;100086.56;4946854;29;21646;-85
2024/03/09 07:36:39;;;;;;;40.33;19.92;;;;;;;10.26;58.18;100083.69;4946923;28;20133;-85
2024/03/09 07:39:07;;;;;;;37.85;20.33;;;;;;;10.70;58.15;100081.19;4925825;29;20129;-85
2024/03/09 07:41:34;;;;;;;36.03;19.55;;;;;;;11.64;55.97;100076.66;4934076;28;20048;-84
2024/03/09 07:44:03;;;;;;;33.85;19.55;;;;;;;10.93;55.71;100071.13;4938781;29;20054;-84
2024/03/09 07:46:30;;;;;;;34.95;19.52;;;;;;;11.22;54.83;100069.69;4928355;28;20110;-84
2024/03/09 07:48:58;;;;;;;33.38;18.80;;;;;;;10.74;54.93;100073.25;4933596;28;20054;-85
2024/03/09 07:51:24;;;;;;;31.45;19.70;;;;;;;11.12;54.50;100072.50;4953436;28;20118;-85
2024/03/09 07:53:52;;;;;;;30.83;17.95;;;;;;;10.93;54.73;100058.03;4925707;28;20054;-85
2024/03/09 07:56:21;;;;;;;30.30;18.90;;;;;;;10.63;57.21;100064.72;4935245;28;20432;-84
2024/03/09 07:58:51;;;;;;;36.05;19.48;;;;;;;10.93;55.44;100062.41;4924135;29;20119;-85
2024/03/09 08:01:18;;;;;;;33.60;20.17;;;;;;;11.09;54.39;100066.47;4934780;28;20109;-83
2024/03/09 08:03:45;;;;;;;35.42;20.08;;;;;;;11.45;54.62;100064.84;4915519;29;20053;-84
2024/03/09 08:06:15;;;;;;;35.08;19.20;;;;;;;9.19;58.17;100060.84;4940654;28;20055;-84
2024/03/09 08:08:43;;;;;;;36.75;20.02;;;;;;;6.94;66.39;100057.41;4922495;28;20053;-83
2024/03/09 08:11:13;;;;;;;28.70;19.25;;;;;;;6.12;71.81;100059.31;4938135;28;20419;-85
2024/03/09 08:13:42;;;;;;;31.77;19.65;;;;;;;5.71;75.93;100053.22;4933579;28;20043;-84
2024/03/09 08:16:12;;;;;;;40.22;21.42;;;;;;;5.35;79.26;100049.69;4943829;28;20050;-83
2024/03/09 08:18:39;;;;;;;38.65;19.45;;;;;;;5.15;81.57;100054.81;4934489;28;20051;-84
2024/03/09 08:21:09;;;;;;;34.83;18.77;;;;;;;5.01;83.37;100040.94;4944193;28;20038;-85
2024/03/09 08:23:42;;;;;;;36.45;20.70;;;;;;;4.84;85.01;100046.91;4934499;28;20146;-84
2024/03/09 08:26:15;;;;;;;39.15;19.67;;;;;;;4.71;87.12;100042.53;4940274;28;20054;-85
2024/03/09 08:28:53;;;;;;;34.97;19.85;;;;;;;4.71;87.27;100050.31;4937047;28;20039;-83
2024/03/09 08:31:24;;;;;;;32.63;18.63;;;;;;;4.54;89.51;100034.66;4939800;28;20518;-84
2024/03/09 08:33:55;;;;;;;33.05;20.38;;;;;;;4.69;89.04;100036.44;4942372;28;20495;-85
2024/03/09 08:36:26;;;;;;;34.28;18.70;;;;;;;4.82;88.35;100035.66;4957081;28;20063;-85
2024/03/09 08:38:53;;;;;;;43.88;23.92;;;;;;;4.82;88.70;100027.88;4940557;28;20047;-84
2024/03/09 08:41:27;;;;;;;35.42;19.98;;;;;;;5.26;87.20;100029.75;4926001;28;20046;-85
2024/03/09 08:44:01;;;;;;;34.58;19.52;;;;;;;7.19;76.02;100026.09;4948913;28;20047;-85
2024/03/09 08:46:31;;;;;;;36.70;20.50;;;;;;;7.39;72.43;100014.69;4920323;28;20055;-83
2024/03/09 08:48:58;;;;;;;30.05;18.83;;;;;;;6.59;75.33;100018.53;4948650;28;20047;-85
2024/03/09 08:51:33;;;;;;;36.42;19.13;;;;;;;6.45;76.80;100018.56;4937785;28;20055;-85
2024/03/09 08:54:00;;;;;;;29.25;17.50;;;;;;;6.11;78.29;100010.81;4939149;28;20046;-84
2024/03/09 08:56:31;;;;;;;37.22;19.08;;;;;;;6.62;77.93;100013.31;4955202;28;20090;-84
2024/03/09 08:59:00;;;;;;;25.65;17.00;;;;;;;6.98;75.68;100011.44;4961849;28;20495;-84
2024/03/09 09:01:31;;;;;;;29.05;18.70;;;;;;;7.96;71.07;99998.63;4947359;28;20055;-83
2024/03/09 09:04:03;;;;;;;30.10;18.25;;;;;;;8.89;68.42;99995.06;4949178;29;20055;-84
2024/03/09 09:06:34;;;;;;;29.42;18.40;;;;;;;9.00;64.45;100000.19;4951913;28;20054;-84
2024/03/09 09:09:16;;;;;;;28.83;17.45;;;;;;;8.39;65.92;99995.59;4933571;29;20039;-84
2024/03/09 09:11:46;;;;;;;31.63;17.88;;;;;;;7.55;68.88;99984.22;4943335;29;20318;-85
2024/03/09 09:14:13;;;;;;;33.30;16.73;;;;;;;7.17;70.55;99981.00;4945227;28;20496;-85
2024/03/09 09:16:45;;;;;;;31.85;17.65;;;;;;;6.50;74.17;99985.59;4933569;28;20073;-84
2024/03/09 09:19:12;;;;;;;26.25;18.38;;;;;;;6.51;75.31;99986.50;4931436;29;20039;-84
2024/03/09 09:21:42;;;;;;;36.03;17.80;;;;;;;6.44;75.51;99986.50;4935400;28;20059;-85
2024/03/09 09:24:12;;;;;;;28.67;17.05;;;;;;;6.10;77.08;99998.69;4946077;28;20047;-84
2024/03/09 09:26:43;;;;;;;31.83;18.95;;;;;;;6.14;77.70;99992.63;4934983;29;20073;-84
2024/03/09 09:29:11;;;;;;;30.95;17.27;;;;;;;6.11;77.91;99983.13;4927376;29;20067;-84
2024/03/09 09:31:43;;;;;;;29.33;16.95;;;;;;;6.26;77.44;99978.75;4957770;28;20052;-84
2024/03/09 09:34:16;;;;;;;29.17;16.92;;;;;;;6.15;77.70;99983.94;4951883;29;20046;-83
2024/03/09 09:36:45;;;;;;;29.30;17.08;;;;;;;6.21;77.80;99973.56;4932869;28;20732;-85
2024/03/09 09:39:20;;;;;;;25.70;15.13;;;;;;;6.07;78.63;99975.31;4925789;28;20143;-85
2024/03/09 09:41:49;;;;;;;29.70;17.67;;;;;;;6.16;78.61;99962.31;4951838;28;20134;-82
2024/03/09 09:44:17;;;;;;;32.47;17.23;;;;;;;6.26;78.80;99963.16;4924779;28;20505;-84
2024/03/09 09:46:44;;;;;;;28.00;16.40;;;;;;;6.33;77.94;99957.06;4937239;28;20059;-83
2024/03/09 09:49:12;;;;;;;24.63;15.70;;;;;;;6.35;78.10;99959.66;4953764;28;20047;-84
2024/03/09 09:51:43;;;;;;;26.80;15.82;;;;;;;6.48;77.15;99952.69;4940305;28;20102;-85
2024/03/09 09:54:12;;;;;;;29.27;17.45;;;;;;;6.44;76.77;99949.22;4948745;29;20431;-84
2024/03/09 09:56:42;;;;;;;45.05;15.85;;;;;;;6.54;77.25;99947.47;4934935;28;20047;-85
2024/03/09 09:59:12;;;;;;;26.37;15.90;;;;;;;6.71;76.40;99942.19;4958259;28;20047;-85
2024/03/09 10:01:39;;;;;;;25.75;15.63;;;;;;;6.82;75.69;99949.94;4948782;28;20054;-84
2024/03/09 10:04:09;;;;;;;28.67;15.80;;;;;;;7.46;74.16;99940.88;4938743;29;20044;-86
2024/03/09 10:06:39;;;;;;;22.23;14.32;;;;;;;9.56;67.16;99935.78;4962477;28;20109;-84
2024/03/09 10:09:07;;;;;;;26.05;15.18;;;;;;;11.38;60.43;99943.56;4949693;29;20644;-85
2024/03/09 10:11:34;;;;;;;23.15;13.82;;;;;;;11.70;57.18;99936.69;4948041;28;20070;-85
2024/03/09 10:14:04;;;;;;;21.23;14.10;;;;;;;12.63;54.26;99932.44;4920102;29;20040;-85
2024/03/09 10:16:33;;;;;;;21.05;13.38;;;;;;;13.57;50.68;99936.59;4936678;28;20078;-84
2024/03/09 10:19:00;;;;;;;24.23;12.95;;;;;;;14.25;50.01;99931.69;4921084;29;20130;-85
2024/03/09 10:21:37;;;;;;;19.33;12.90;;;;;;;13.65;49.42;99931.97;4931249;29;20062;-85
2024/03/09 10:24:09;;;;;;;23.35;14.00;;;;;;;14.06;49.01;99926.19;4936660;28;20042;-85
2024/03/09 10:26:44;;;;;;;19.65;14.10;;;;;;;14.55;48.33;99929.69;4950642;28;20039;-85
2024/03/09 10:29:13;;;;;;;17.50;13.23;;;;;;;14.23;47.51;99934.34;4955655;29;20047;-83
2024/03/09 10:31:43;;;;;;;19.10;14.25;;;;;;;14.05;48.42;99927.09;4941897;28;20057;-82
2024/03/09 10:34:10;;;;;;;19.17;13.13;;;;;;;13.39;48.92;99919.69;4935104;29;20119;-85
2024/03/09 10:36:40;;;;;;;20.60;14.02;;;;;;;13.66;47.99;99924.91;4931716;28;20050;-85
2024/03/09 10:39:07;;;;;;;18.58;13.05;;;;;;;14.37;46.54;99917.22;4938676;29;20039;-83
2024/03/09 10:41:39;;;;;;;17.92;12.70;;;;;;;13.48;47.56;99915.88;4945078;28;20044;-85
2024/03/09 10:44:07;;;;;;;20.42;13.77;;;;;;;13.77;47.01;99921.94;4942780;28;20449;-83
2024/03/09 10:46:36;;;;;;;16.70;12.52;;;;;;;14.10;46.99;99906.75;4944527;28;20051;-83
2024/03/09 10:49:05;;;;;;;18.45;13.15;;;;;;;14.46;45.62;99919.50;4940202;29;20110;-84
2024/03/09 10:51:42;;;;;;;20.13;13.00;;;;;;;14.27;46.03;99926.34;4925647;28;20410;-83
2024/03/09 10:54:43;;;;;;;19.08;13.50;;;;;;;12.05;49.78;99925.28;4927771;29;20455;-83
2024/03/09 10:57:21;;;;;;;18.90;12.82;;;;;;;10.58;54.07;99927.84;4939417;29;20622;-83
2024/03/09 10:59:51;;;;;;;18.85;13.43;;;;;;;12.71;50.14;99922.59;4935402;28;20089;-83
2024/03/09 11:02:19;;;;;;;19.98;13.13;;;;;;;12.55;49.43;99909.06;4936455;29;20039;-84
2024/03/09 11:04:49;;;;;;;19.48;12.93;;;;;;;12.49;49.78;99906.59;4928750;28;20455;-84
2024/03/09 11:07:20;;;;;;;19.48;12.50;;;;;;;12.64;48.84;99909.69;4948004;28;20470;-84
2024/03/09 11:09:49;;;;;;;19.23;13.25;;;;;;;13.85;47.50;99907.59;4925819;28;20491;-85
2024/03/09 11:12:19;;;;;;;21.85;13.20;;;;;;;14.88;45.63;99895.09;4926054;29;20051;-84
2024/03/09 11:14:52;;;;;;;19.35;13.13;;;;;;;15.20;44.68;99892.09;4932110;28;20049;-84
2024/03/09 11:17:23;;;;;;;20.08;13.45;;;;;;;15.31;44.28;99886.41;4926560;29;20071;-84
2024/03/09 11:19:51;;;;;;;20.70;12.13;;;;;;;15.43;43.74;99890.31;4920457;29;20047;-84
2024/03/09 11:22:45;;;;;;;17.55;12.07;;;;;;;16.10;42.16;99888.38;4923219;28;20079;-84
2024/03/09 11:25:35;;;;;;;16.40;12.98;;;;;;;15.11;43.14;99892.47;4934296;29;20455;-85
2024/03/09 11:28:02;;;;;;;19.33;12.70;;;;;;;16.35;41.27;99880.25;4903878;29;20051;-83
2024/03/09 11:30:31;;;;;;;19.67;12.88;;;;;;;15.56;42.77;99886.25;4935417;28;20069;-83
2024/03/09 11:32:59;;;;;;;20.77;14.45;;;;;;;16.24;41.80;99877.22;4924421;29;20075;-84
2024/03/09 11:35:32;;;;;;;17.52;13.63;;;;;;;15.86;42.81;99864.78;4936395;28;20135;-83
2024/03/09 11:38:16;;;;;;;16.52;11.52;;;;;;;15.51;43.06;99860.06;4939674;28;20046;-83
2024/03/09 11:40:50;;;;;;;20.38;13.27;;;;;;;15.97;41.76;99861.66;4936174;28;20388;-85
2024/03/09 11:43:16;;;;;;;16.77;12.95;;;;;;;14.84;44.65;99846.06;4921156;29;20039;-84
2024/03/09 11:45:56;;;;;;;15.88;12.57;;;;;;;15.42;42.97;99849.88;4917237;28;20079;-83
2024/03/09 11:48:25;;;;;;;17.48;12.57;;;;;;;16.15;42.56;99842.38;4921572;28;20150;-83
2024/03/09 11:50:55;;;;;;;17.98;13.68;;;;;;;15.71;42.32;99845.19;4936662;29;20094;-84
2024/03/09 11:53:22;;;;;;;15.35;12.15;;;;;;;16.91;41.08;99830.09;4916855;29;20057;-84
2024/03/09 11:55:50;;;;;;;21.48;14.27;;;;;;;17.40;40.24;99829.47;4939893;28;20090;-84
2024/03/09 11:58:20;;;;;;;18.33;13.45;;;;;;;16.58;40.81;99836.03;4921940;29;20463;-82
2024/03/09 12:00:50;;;;;;;18.25;13.93;;;;;;;17.13;40.34;99828.13;4926152;28;20055;-84
2024/03/09 12:03:17;;;;;;;18.73;14.05;;;;;;;16.44;41.29;99826.09;4936439;28;20093;-83
2024/03/09 12:05:44;;;;;;;18.83;13.57;;;;;;;15.14;42.80;99815.91;4949773;28;20059;-82